KEWB

New Bedford Regional Airport

New Bedford, Massachusetts, USA
METAR KEWB 220953Z AUTO 00000KT 10SM CLR 09/09 A3016 RMK AO2 SLP213 T00940094
Observed Flight Rules
May-22 @ 09:53 UTC (19 minutes ago) Visual Flight Rules
Visibility Clouds
10 miles
  • Clear skies
Temperatures Readings
Current 9°C / 48°F
Dewpoint 9°C / 48°F
Humidity 100%
Altimeter 30.16" Hg
Pressure 1021.3 hPa
Elevation 23
METAR KEWB 220953Z AUTO 00000KT 10SM CLR 09/09 A3016 RMK AO2 SLP213 T00940094
Observed Flight Rules
May-22 @ 09:53 UTC
(19 minutes ago)
VFR
Clouds
  • Clear skies
Temperature Dewpoint
9°C / 48°F 9°C / 48°F
Humidity Altimeter Pressure
100% 30.16" Hg 1021.3 hPa